Time;durP1;ratioP1;P1;durP2;ratioP2;P2;SDS_P1;SDS_P2;PMS_P1;PMS_P2;Temp;Humidity;BMP_temperature;BMP_pressure;BME280_temperature;BME280_humidity;BME280_pressure;Samples;Min_cycle;Max_cycle;Signal;HPM_P1;HPM_P2
2023/08/27 00:02:33;;;;;;;7.07;2.12;;;14.40;99.90;;;;;;7299580;32;20322;-56
2023/08/27 00:06:34;;;;;;;3.67;1.52;;;14.30;99.90;;;;;;7298224;32;20099;-56
2023/08/27 00:10:36;;;;;;;4.82;1.62;;;14.30;99.90;;;;;;7295871;32;20104;-55
2023/08/27 00:14:38;;;;;;;6.78;1.92;;;14.20;99.90;;;;;;7298740;32;20143;-56
2023/08/27 00:18:40;;;;;;;6.90;1.60;;;14.20;99.90;;;;;;7298317;32;20149;-56
2023/08/27 00:22:41;;;;;;;2.67;1.60;;;14.20;99.90;;;;;;7295548;32;20199;-56
2023/08/27 00:26:43;;;;;;;3.05;1.60;;;14.10;99.90;;;;;;7276866;32;20271;-55
2023/08/27 00:30:45;;;;;;;4.80;1.80;;;14.10;99.90;;;;;;7289997;32;20190;-56
2023/08/27 00:34:47;;;;;;;6.03;1.80;;;14.10;99.90;;;;;;7293615;32;20170;-56
2023/08/27 00:38:48;;;;;;;5.03;1.52;;;14.10;99.90;;;;;;7291410;32;20535;-55
2023/08/27 00:42:50;;;;;;;3.37;1.87;;;14.10;99.90;;;;;;7298417;32;20246;-55
2023/08/27 00:46:52;;;;;;;5.55;1.87;;;14.10;99.90;;;;;;7294049;32;20104;-56
2023/08/27 00:50:54;;;;;;;2.92;1.87;;;14.00;99.90;;;;;;7298120;32;20635;-56
2023/08/27 00:54:59;;;;;;;3.20;1.70;;;13.90;99.90;;;;;;7296059;32;20100;-56
2023/08/27 00:59:02;;;;;;;3.95;2.12;;;13.90;99.90;;;;;;7291693;32;20130;-55
2023/08/27 01:03:04;;;;;;;7.12;2.08;;;13.80;99.90;;;;;;7295471;32;20644;-57
2023/08/27 01:07:15;;;;;;;3.65;2.30;;;13.70;99.90;;;;;;7291262;32;20157;-57
2023/08/27 01:11:50;;;;;;;3.33;2.00;;;13.60;99.90;;;;;;7297097;32;20251;-57
2023/08/27 01:16:00;;;;;;;4.55;1.87;;;13.70;99.90;;;;;;7289888;32;20104;-56
2023/08/27 01:20:05;;;;;;;5.62;2.25;;;13.70;99.90;;;;;;7296509;32;20484;-56
2023/08/27 01:24:07;;;;;;;4.85;2.10;;;13.60;99.90;;;;;;7298702;32;20152;-56
2023/08/27 01:28:19;;;;;;;4.25;2.50;;;13.50;99.90;;;;;;7299498;32;20120;-57
2023/08/27 01:32:36;;;;;;;4.03;2.12;;;13.40;99.90;;;;;;7294061;32;20151;-56
2023/08/27 01:36:39;;;;;;;7.45;2.25;;;13.40;99.90;;;;;;7296444;32;21656;-56
2023/08/27 01:40:41;;;;;;;3.50;2.30;;;13.30;99.90;;;;;;7287695;32;20126;-56
2023/08/27 01:44:42;;;;;;;5.47;2.60;;;13.20;99.90;;;;;;7295968;32;20651;-56
2023/08/27 01:48:44;;;;;;;3.60;1.95;;;13.20;99.90;;;;;;7293516;32;20591;-56
2023/08/27 01:52:46;;;;;;;3.25;2.08;;;13.20;99.90;;;;;;7282480;32;20096;-57
2023/08/27 01:56:48;;;;;;;8.30;2.62;;;13.10;99.90;;;;;;7293789;32;20420;-56
2023/08/27 02:00:50;;;;;;;4.60;2.55;;;13.00;99.90;;;;;;7294598;32;20112;-56
2023/08/27 02:04:52;;;;;;;5.87;2.20;;;13.00;99.90;;;;;;7299850;32;20534;-57
2023/08/27 02:08:53;;;;;;;9.45;2.10;;;13.00;99.90;;;;;;7298145;32;20515;-56
2023/08/27 02:12:55;;;;;;;4.30;2.37;;;13.00;99.90;;;;;;7278502;32;20104;-56
2023/08/27 02:16:57;;;;;;;4.87;1.90;;;13.00;99.90;;;;;;7272506;32;20119;-56
2023/08/27 02:20:59;;;;;;;5.37;2.10;;;12.90;99.90;;;;;;7296874;32;20549;-57
2023/08/27 02:25:00;;;;;;;3.30;2.17;;;12.90;99.90;;;;;;7291866;32;20287;-56
2023/08/27 02:29:02;;;;;;;5.00;1.90;;;12.90;99.90;;;;;;7295206;32;20175;-56
2023/08/27 02:33:04;;;;;;;3.35;2.28;;;12.90;99.90;;;;;;7293875;32;20203;-56
2023/08/27 02:37:06;;;;;;;6.12;2.33;;;12.90;99.90;;;;;;7294789;32;20496;-56
2023/08/27 02:41:07;;;;;;;6.00;2.15;;;12.80;99.90;;;;;;7292104;32;20183;-57
2023/08/27 02:45:09;;;;;;;7.60;2.45;;;12.80;99.90;;;;;;7291112;32;20237;-56
2023/08/27 02:49:11;;;;;;;7.82;1.90;;;12.80;99.90;;;;;;7291164;32;20163;-56
2023/08/27 02:53:13;;;;;;;8.57;2.33;;;12.80;99.90;;;;;;7301277;32;20108;-56
2023/08/27 02:57:15;;;;;;;3.25;2.00;;;12.70;99.90;;;;;;7297966;32;20187;-56
2023/08/27 03:01:20;;;;;;;4.87;2.20;;;12.70;99.90;;;;;;7296083;32;20672;-57
2023/08/27 03:05:22;;;;;;;3.05;2.08;;;12.70;99.90;;;;;;7300545;32;20193;-56
2023/08/27 03:09:24;;;;;;;2.47;1.70;;;12.70;99.90;;;;;;7301556;32;20286;-56
2023/08/27 03:13:26;;;;;;;7.22;1.98;;;12.60;99.90;;;;;;7298611;32;20184;-56
2023/08/27 03:17:27;;;;;;;4.25;1.67;;;12.60;99.90;;;;;;7302102;32;20099;-55
2023/08/27 03:21:29;;;;;;;3.55;1.60;;;12.60;99.90;;;;;;7292332;32;20226;-56
2023/08/27 03:25:31;;;;;;;5.28;1.70;;;12.60;99.90;;;;;;7298038;32;20466;-56
2023/08/27 03:29:33;;;;;;;3.60;2.05;;;12.50;99.90;;;;;;7298000;32;20254;-56
2023/08/27 03:33:34;;;;;;;5.70;1.80;;;12.50;99.90;;;;;;7298103;32;20203;-56
2023/08/27 03:37:36;;;;;;;4.07;1.62;;;12.40;99.90;;;;;;7290822;32;20104;-57
2023/08/27 03:41:38;;;;;;;2.60;2.10;;;12.40;99.90;;;;;;7293932;32;20116;-56
2023/08/27 03:45:39;;;;;;;6.20;2.10;;;12.40;99.90;;;;;;7293026;32;20104;-55
2023/08/27 03:49:41;;;;;;;2.37;1.73;;;12.30;99.90;;;;;;7295198;32;20240;-56
2023/08/27 03:53:43;;;;;;;2.75;1.98;;;12.20;99.90;;;;;;7296422;32;20781;-56
2023/08/27 03:57:45;;;;;;;5.12;2.10;;;12.30;99.90;;;;;;7299103;32;20210;-55
2023/08/27 04:01:47;;;;;;;5.43;2.05;;;12.30;99.90;;;;;;7294089;32;20164;-56
2023/08/27 04:05:49;;;;;;;4.18;1.85;;;12.20;99.90;;;;;;7292384;32;20446;-56
2023/08/27 04:09:51;;;;;;;4.28;1.90;;;12.20;99.90;;;;;;7299007;32;20123;-56
2023/08/27 04:13:53;;;;;;;3.80;1.60;;;12.20;99.90;;;;;;7298459;32;20302;-57
2023/08/27 04:17:54;;;;;;;5.40;1.70;;;12.20;99.90;;;;;;7299620;32;20175;-56
2023/08/27 04:21:56;;;;;;;5.60;2.20;;;12.20;99.90;;;;;;7296724;32;20100;-56
2023/08/27 04:25:58;;;;;;;2.95;1.62;;;12.20;99.90;;;;;;7294861;32;20122;-57
2023/08/27 04:29:59;;;;;;;4.37;1.75;;;12.30;99.90;;;;;;7297849;32;20107;-56
2023/08/27 04:34:01;;;;;;;2.87;1.85;;;12.40;99.90;;;;;;7293875;32;20112;-56
2023/08/27 04:38:03;;;;;;;7.15;1.80;;;12.50;99.90;;;;;;7297381;32;20104;-56
2023/08/27 04:42:05;;;;;;;8.32;1.80;;;12.70;99.90;;;;;;7294648;32;20274;-56
2023/08/27 04:46:06;;;;;;;3.28;1.80;;;12.80;99.90;;;;;;7298496;32;20219;-56
2023/08/27 04:50:09;;;;;;;2.58;1.75;;;12.90;99.90;;;;;;7295541;32;20108;-56
2023/08/27 04:54:10;;;;;;;3.45;1.60;;;13.10;99.90;;;;;;7299365;32;20217;-56
2023/08/27 04:58:15;;;;;;;2.97;1.42;;;13.30;99.90;;;;;;7287165;32;20096;-56
2023/08/27 05:02:17;;;;;;;4.55;1.60;;;13.40;99.90;;;;;;7297801;32;20104;-56
2023/08/27 05:06:18;;;;;;;4.37;1.90;;;13.50;99.90;;;;;;7289133;32;20107;-56
2023/08/27 05:10:20;;;;;;;3.58;1.90;;;13.60;99.90;;;;;;7294120;32;20491;-56
2023/08/27 05:14:22;;;;;;;3.00;1.85;;;13.70;99.90;;;;;;7287381;32;20123;-56
2023/08/27 05:18:24;;;;;;;3.97;1.95;;;13.90;99.90;;;;;;7290311;32;20215;-57
2023/08/27 05:22:26;;;;;;;4.65;2.60;;;14.00;99.90;;;;;;7280051;32;20199;-57
2023/08/27 05:26:27;;;;;;;5.03;1.90;;;14.00;99.90;;;;;;7296625;32;20122;-56
2023/08/27 05:30:29;;;;;;;5.30;2.10;;;14.10;99.90;;;;;;7290161;32;20514;-56
2023/08/27 05:34:32;;;;;;;3.35;2.10;;;14.20;99.90;;;;;;7287104;32;20326;-56
2023/08/27 05:38:33;;;;;;;4.40;2.30;;;14.30;99.90;;;;;;7298805;32;20467;-56
2023/08/27 05:42:35;;;;;;;5.80;2.30;;;14.30;99.90;;;;;;7280213;32;20115;-57
2023/08/27 05:46:37;;;;;;;5.32;2.95;;;14.30;99.90;;;;;;7296087;32;20120;-57
2023/08/27 05:50:39;;;;;;;5.07;2.60;;;14.40;99.90;;;;;;7297282;32;20119;-57
2023/08/27 05:54:41;;;;;;;3.95;2.30;;;14.50;99.90;;;;;;7293526;32;20168;-57
2023/08/27 05:58:43;;;;;;;3.70;2.15;;;14.70;99.90;;;;;;7288232;32;20095;-57
2023/08/27 06:02:45;;;;;;;3.15;2.05;;;14.70;99.90;;;;;;7289759;32;20292;-56
2023/08/27 06:06:46;;;;;;;4.10;1.95;;;14.80;99.90;;;;;;7295879;32;20132;-60
2023/08/27 06:10:48;;;;;;;2.87;2.12;;;14.90;99.90;;;;;;7293752;32;20190;-55
2023/08/27 06:14:50;;;;;;;3.42;1.90;;;14.90;99.90;;;;;;7294728;32;20297;-58
2023/08/27 06:18:51;;;;;;;4.57;2.72;;;15.00;99.90;;;;;;7297596;32;20215;-58
2023/08/27 06:22:53;;;;;;;3.45;2.10;;;15.00;99.90;;;;;;7292155;32;20108;-57
2023/08/27 06:26:55;;;;;;;3.28;2.00;;;15.00;99.90;;;;;;7296038;32;20203;-57
2023/08/27 06:30:57;;;;;;;7.87;1.90;;;15.00;99.90;;;;;;7300098;32;20243;-57
2023/08/27 06:34:59;;;;;;;4.18;2.35;;;15.10;99.90;;;;;;7297935;32;20118;-58
2023/08/27 06:39:00;;;;;;;3.92;2.10;;;15.20;99.90;;;;;;7298314;32;20154;-59
2023/08/27 06:43:02;;;;;;;4.12;2.20;;;15.10;99.90;;;;;;7300062;32;20157;-58
2023/08/27 06:47:04;;;;;;;7.03;2.50;;;15.10;99.90;;;;;;7298617;32;20258;-57
2023/08/27 06:51:06;;;;;;;5.25;2.70;;;15.20;99.90;;;;;;7301495;32;20149;-57
2023/08/27 06:55:10;;;;;;;3.37;2.40;;;15.30;99.90;;;;;;7297596;32;20123;-59
2023/08/27 06:59:11;;;;;;;3.60;2.55;;;15.40;99.90;;;;;;7296199;32;20108;-58
2023/08/27 07:03:13;;;;;;;6.57;2.37;;;15.50;99.90;;;;;;7294627;32;20167;-58
2023/08/27 07:07:15;;;;;;;3.78;2.50;;;15.50;99.90;;;;;;7295375;32;20236;-57
2023/08/27 07:11:17;;;;;;;4.93;2.35;;;15.60;99.90;;;;;;7299831;32;20103;-57
2023/08/27 07:15:19;;;;;;;5.18;2.58;;;15.70;99.90;;;;;;7300707;32;20138;-57
2023/08/27 07:19:20;;;;;;;5.20;2.30;;;15.70;99.90;;;;;;7301701;32;20226;-57
2023/08/27 07:23:22;;;;;;;4.32;2.30;;;15.80;99.90;;;;;;7295356;32;20146;-57
2023/08/27 07:27:24;;;;;;;3.87;2.50;;;15.90;99.90;;;;;;7301192;32;20104;-57
2023/08/27 07:31:26;;;;;;;4.62;2.58;;;15.90;99.90;;;;;;7291122;32;20236;-59
2023/08/27 07:35:29;;;;;;;5.82;2.72;;;16.00;99.90;;;;;;7298008;32;20132;-58
2023/08/27 07:39:31;;;;;;;3.35;2.70;;;16.10;99.90;;;;;;7296508;32;20138;-58
2023/08/27 07:43:32;;;;;;;5.25;3.05;;;16.30;99.90;;;;;;7296424;32;20320;-58
2023/08/27 07:47:34;;;;;;;3.30;2.80;;;16.40;99.90;;;;;;7291470;32;20157;-58
2023/08/27 07:51:36;;;;;;;6.35;3.72;;;16.30;99.90;;;;;;7295734;32;20206;-58
2023/08/27 07:55:38;;;;;;;6.70;3.62;;;16.40;99.90;;;;;;7295944;32;20320;-58
2023/08/27 07:59:42;;;;;;;5.43;3.50;;;16.40;99.90;;;;;;7295514;32;20159;-58
2023/08/27 08:03:44;;;;;;;4.37;3.08;;;16.60;99.90;;;;;;7291004;32;20147;-58
2023/08/27 08:07:46;;;;;;;4.85;3.33;;;16.60;99.90;;;;;;7292632;32;20123;-58
2023/08/27 08:11:48;;;;;;;3.83;2.47;;;16.60;99.90;;;;;;7293412;32;20125;-59
2023/08/27 08:15:50;;;;;;;5.22;2.33;;;16.60;99.90;;;;;;7293663;32;20225;-58
2023/08/27 08:19:52;;;;;;;3.60;2.40;;;16.60;99.90;;;;;;7299925;32;20096;-59
2023/08/27 08:23:53;;;;;;;4.47;2.40;;;16.70;99.90;;;;;;7296043;32;20542;-58
2023/08/27 08:27:55;;;;;;;3.30;2.20;;;16.80;99.90;;;;;;7292139;32;20210;-59
2023/08/27 08:31:57;;;;;;;2.85;1.80;;;16.90;99.90;;;;;;7290675;32;20126;-57
2023/08/27 08:35:59;;;;;;;2.85;1.95;;;17.10;99.90;;;;;;7295112;32;20749;-58
2023/08/27 08:40:01;;;;;;;2.55;1.67;;;17.40;99.90;;;;;;7295413;32;20926;-58
2023/08/27 08:44:20;;;;;;;2.17;1.58;;;17.50;99.90;;;;;;7290741;32;20103;-59
2023/08/27 08:48:26;;;;;;;6.80;1.87;;;17.70;99.90;;;;;;7298851;32;20207;-57
2023/08/27 08:52:29;;;;;;;3.37;1.27;;;17.80;99.90;;;;;;7297479;32;20246;-57
2023/08/27 08:56:45;;;;;;;1.92;1.33;;;17.70;99.90;;;;;;7298938;32;20828;-58
2023/08/27 09:00:47;;;;;;;2.40;1.33;;;17.80;99.90;;;;;;7294032;32;20541;-57
2023/08/27 09:04:50;;;;;;;2.22;1.50;;;17.60;99.90;;;;;;7291770;32;20099;-58
2023/08/27 09:08:52;;;;;;;2.15;1.60;;;17.70;99.90;;;;;;7296831;32;20175;-58
2023/08/27 09:12:56;;;;;;;4.78;1.55;;;17.60;99.90;;;;;;7295305;32;20893;-57
2023/08/27 09:16:58;;;;;;;2.80;1.60;;;17.50;99.90;;;;;;7292711;32;20126;-58
2023/08/27 09:21:00;;;;;;;2.45;0.88;;;17.50;99.90;;;;;;7293690;32;20104;-58
2023/08/27 09:25:03;;;;;;;2.67;1.10;;;17.50;99.90;;;;;;7298698;32;20183;-57
2023/08/27 09:29:08;;;;;;;2.78;1.50;;;17.50;99.90;;;;;;7296771;32;20731;-57
2023/08/27 09:33:11;;;;;;;2.75;1.80;;;17.70;99.90;;;;;;7291800;32;20119;-57
2023/08/27 09:37:13;;;;;;;2.47;1.50;;;18.10;99.90;;;;;;7297324;32;20155;-58
2023/08/27 09:41:16;;;;;;;3.58;0.93;;;19.30;99.90;;;;;;7297208;32;20170;-57
2023/08/27 09:45:18;;;;;;;4.72;1.02;;;19.60;99.90;;;;;;7293090;32;20515;-58
2023/08/27 09:49:23;;;;;;;3.33;0.93;;;19.60;99.90;;;;;;7275872;32;20577;-60
2023/08/27 09:53:25;;;;;;;2.15;0.93;;;19.80;99.90;;;;;;7287108;32;20124;-58
2023/08/27 09:57:28;;;;;;;1.87;1.00;;;20.10;99.90;;;;;;7296134;32;20438;-58
2023/08/27 10:01:34;;;;;;;3.45;1.35;;;20.40;99.90;;;;;;7297909;32;20107;-58
2023/08/27 10:05:36;;;;;;;2.05;0.80;;;20.60;99.90;;;;;;7294315;32;20260;-58
2023/08/27 10:09:38;;;;;;;2.05;0.77;;;21.50;99.90;;;;;;7299287;32;20230;-59
2023/08/27 10:13:43;;;;;;;5.72;1.10;;;21.50;99.90;;;;;;7284895;32;20182;-59
2023/08/27 10:17:45;;;;;;;1.73;0.65;;;21.40;99.90;;;;;;7302917;32;22155;-59
2023/08/27 10:21:47;;;;;;;2.12;0.82;;;21.60;99.90;;;;;;7299051;32;20132;-58
2023/08/27 10:25:51;;;;;;;3.00;1.10;;;20.90;99.90;;;;;;7285620;32;20183;-57
2023/08/27 10:29:54;;;;;;;2.97;0.68;;;21.00;99.90;;;;;;7301850;32;20104;-58
2023/08/27 10:33:56;;;;;;;2.42;0.68;;;21.20;99.90;;;;;;7301492;32;20581;-58
2023/08/27 10:37:58;;;;;;;1.92;0.80;;;21.00;99.90;;;;;;7297138;32;20119;-59
2023/08/27 10:42:01;;;;;;;2.30;0.77;;;21.70;99.90;;;;;;7292712;32;20179;-58
2023/08/27 10:46:29;;;;;;;1.12;0.70;;;22.60;99.90;;;;;;7296381;32;20280;-57
2023/08/27 10:50:58;;;;;;;1.83;0.80;;;22.80;99.90;;;;;;7290789;32;20130;-58
2023/08/27 10:55:01;;;;;;;2.10;0.73;;;22.70;99.90;;;;;;7301712;32;20124;-59
2023/08/27 10:59:06;;;;;;;2.05;0.90;;;21.90;99.90;;;;;;7297487;32;20130;-58
2023/08/27 11:03:14;;;;;;;2.85;0.90;;;21.00;99.90;;;;;;7295894;32;20231;-57
2023/08/27 11:07:19;;;;;;;2.87;1.00;;;20.90;99.90;;;;;;7301231;32;20269;-59
2023/08/27 11:11:26;;;;;;;3.15;0.93;;;21.10;99.90;;;;;;7293810;32;20565;-59
2023/08/27 11:15:32;;;;;;;2.30;0.90;;;21.30;99.90;;;;;;7293605;32;20199;-57
2023/08/27 11:19:35;;;;;;;3.00;0.82;;;21.80;99.90;;;;;;7297806;32;20231;-58
2023/08/27 11:23:45;;;;;;;2.92;1.08;;;21.60;99.90;;;;;;7299053;32;20821;-58
2023/08/27 11:27:48;;;;;;;2.65;0.80;;;21.40;99.90;;;;;;7297202;32;20243;-57
2023/08/27 11:31:50;;;;;;;2.67;0.90;;;21.20;99.90;;;;;;7292395;32;20527;-58
2023/08/27 11:35:52;;;;;;;1.77;0.60;;;21.00;99.90;;;;;;7293838;32;20183;-58
2023/08/27 11:39:54;;;;;;;5.15;1.12;;;21.20;99.90;;;;;;7295242;32;20100;-59
2023/08/27 11:43:56;;;;;;;3.05;0.90;;;21.10;99.90;;;;;;7290521;32;20190;-58
2023/08/27 11:48:05;;;;;;;2.78;0.80;;;21.30;99.90;;;;;;7293444;32;20101;-55
2023/08/27 11:52:08;;;;;;;3.22;1.15;;;21.10;99.90;;;;;;7291585;32;20203;-55
2023/08/27 11:56:15;;;;;;;2.17;0.82;;;20.80;99.90;;;;;;7298785;32;20592;-55
2023/08/27 12:00:16;;;;;;;3.42;0.60;;;20.40;99.90;;;;;;7292208;32;20187;-59
2023/08/27 12:04:18;;;;;;;2.03;0.80;;;20.20;99.90;;;;;;7297257;32;20122;-59
2023/08/27 12:08:20;;;;;;;3.55;0.82;;;19.90;99.90;;;;;;7295328;32;20245;-58
2023/08/27 12:12:26;;;;;;;3.05;0.75;;;19.80;99.90;;;;;;7290443;32;20176;-58
2023/08/27 12:16:32;;;;;;;1.62;0.70;;;19.90;99.90;;;;;;7293677;32;20151;-58
2023/08/27 12:20:36;;;;;;;2.92;0.90;;;19.90;99.90;;;;;;7293520;32;20697;-58
2023/08/27 12:24:43;;;;;;;5.62;1.00;;;20.20;99.90;;;;;;7290780;32;20127;-59
2023/08/27 12:29:05;;;;;;;1.60;0.70;;;20.60;99.90;;;;;;7297365;32;20131;-59
2023/08/27 12:33:07;;;;;;;1.80;0.60;;;21.00;99.90;;;;;;7287888;32;20306;-59
2023/08/27 12:37:10;;;;;;;2.90;1.30;;;21.00;99.90;;;;;;7293389;32;20104;-58
2023/08/27 12:41:11;;;;;;;1.73;0.80;;;20.90;99.90;;;;;;7293895;32;20516;-58
2023/08/27 12:45:13;;;;;;;4.43;0.82;;;20.60;99.90;;;;;;7296526;32;20187;-58
2023/08/27 12:49:15;;;;;;;2.15;0.88;;;20.60;99.90;;;;;;7295525;32;20123;-58
2023/08/27 12:53:17;;;;;;;3.97;0.80;;;20.90;99.90;;;;;;7295529;32;20213;-59
2023/08/27 12:57:19;;;;;;;2.90;0.90;;;21.40;99.90;;;;;;7296236;32;20178;-59
2023/08/27 13:01:20;;;;;;;2.72;0.60;;;21.60;99.90;;;;;;7290866;32;20119;-57
2023/08/27 13:05:22;;;;;;;1.45;0.70;;;21.90;99.90;;;;;;7293307;32;20100;-58
2023/08/27 13:09:24;;;;;;;1.95;0.85;;;22.20;99.90;;;;;;7295072;32;20431;-58
2023/08/27 13:13:26;;;;;;;2.15;0.68;;;21.90;99.90;;;;;;7294131;32;20214;-58
2023/08/27 13:17:28;;;;;;;2.80;0.73;;;21.50;99.90;;;;;;7291331;32;20318;-59
2023/08/27 13:21:29;;;;;;;3.28;0.75;;;20.90;99.90;;;;;;7296845;32;20213;-58
2023/08/27 13:25:31;;;;;;;1.85;0.40;;;20.30;99.90;;;;;;7302867;32;20112;-58
2023/08/27 13:29:34;;;;;;;6.07;0.30;;;19.10;99.90;;;;;;7299108;32;20100;-57
2023/08/27 13:33:37;;;;;;;1.75;0.20;;;18.20;99.90;;;;;;7289934;32;20242;-58
2023/08/27 13:37:38;;;;;;;1.67;0.30;;;17.50;99.90;;;;;;7298413;32;20108;-58
2023/08/27 13:41:40;;;;;;;2.22;0.20;;;16.80;99.90;;;;;;7296934;32;20100;-58
2023/08/27 13:45:42;;;;;;;1.05;0.50;;;16.30;99.90;;;;;;7295894;32;20548;-58
2023/08/27 13:49:43;;;;;;;0.90;0.20;;;16.10;99.90;;;;;;7289422;32;20108;-57
2023/08/27 13:53:45;;;;;;;0.98;0.20;;;16.40;99.90;;;;;;7297556;32;20443;-58
2023/08/27 13:57:47;;;;;;;1.17;0.30;;;17.00;99.90;;;;;;7296028;32;20206;-58
2023/08/27 14:01:49;;;;;;;1.00;0.20;;;17.70;99.90;;;;;;7289632;32;20104;-56
2023/08/27 14:05:51;;;;;;;1.80;0.40;;;18.10;99.90;;;;;;7298515;32;20562;-58
2023/08/27 14:09:53;;;;;;;1.42;0.35;;;18.50;99.90;;;;;;7299716;32;20131;-58
2023/08/27 14:13:54;;;;;;;1.33;0.52;;;19.00;99.90;;;;;;7300120;32;20112;-57
2023/08/27 14:17:56;;;;;;;1.00;0.47;;;19.30;99.90;;;;;;7297398;32;20096;-58
2023/08/27 14:21:58;;;;;;;1.95;0.30;;;19.50;99.90;;;;;;7301851;32;20112;-57
2023/08/27 14:26:00;;;;;;;1.08;0.35;;;19.90;99.90;;;;;;7297222;32;20104;-59
2023/08/27 14:30:02;;;;;;;1.70;0.50;;;19.50;99.90;;;;;;7295388;32;20100;-61
2023/08/27 14:34:08;;;;;;;2.30;0.47;;;18.90;99.90;;;;;;7276059;32;20103;-61
2023/08/27 14:38:10;;;;;;;1.73;0.57;;;18.30;99.90;;;;;;7295104;32;20513;-58
2023/08/27 14:42:12;;;;;;;1.35;0.40;;;17.60;99.90;;;;;;7300119;32;20114;-58
2023/08/27 14:46:13;;;;;;;2.03;0.68;;;17.20;99.90;;;;;;7296903;32;20415;-57
2023/08/27 14:50:18;;;;;;;2.83;0.68;;;16.80;99.90;;;;;;7299178;32;20100;-57
2023/08/27 14:54:20;;;;;;;1.48;0.43;;;16.70;99.90;;;;;;7297248;32;20112;-57
2023/08/27 14:58:21;;;;;;;1.37;0.40;;;16.50;99.90;;;;;;7294429;32;20136;-57
2023/08/27 15:02:23;;;;;;;1.23;0.40;;;16.50;99.90;;;;;;7292013;32;21058;-58
2023/08/27 15:06:25;;;;;;;1.75;0.50;;;16.40;99.90;;;;;;7295535;32;20104;-56
2023/08/27 15:10:27;;;;;;;1.60;0.37;;;16.50;99.90;;;;;;7297980;32;20179;-57
2023/08/27 15:14:29;;;;;;;2.53;0.60;;;16.50;99.90;;;;;;7294210;32;20320;-57
2023/08/27 15:18:31;;;;;;;1.37;0.45;;;16.50;99.90;;;;;;7285005;32;20581;-57
2023/08/27 15:22:32;;;;;;;1.92;0.60;;;16.80;99.90;;;;;;7302686;32;20384;-57
2023/08/27 15:26:34;;;;;;;1.12;0.40;;;16.90;99.90;;;;;;7297287;32;20201;-57
2023/08/27 15:30:37;;;;;;;1.10;0.47;;;17.00;99.90;;;;;;7296310;32;20100;-57
2023/08/27 15:34:39;;;;;;;1.00;0.60;;;17.20;99.90;;;;;;7294134;32;20189;-57
2023/08/27 15:38:41;;;;;;;1.20;0.52;;;17.10;99.90;;;;;;7296521;32;20124;-57
2023/08/27 15:42:43;;;;;;;0.60;0.40;;;16.90;99.90;;;;;;7300526;32;20182;-57
2023/08/27 15:46:45;;;;;;;0.77;0.60;;;17.00;99.90;;;;;;7296352;32;20096;-57
2023/08/27 15:50:47;;;;;;;0.70;0.60;;;17.00;99.90;;;;;;7293632;32;20730;-58
2023/08/27 15:54:49;;;;;;;2.30;0.73;;;17.20;99.90;;;;;;7289193;32;20226;-57
2023/08/27 15:58:51;;;;;;;1.37;0.77;;;17.10;99.90;;;;;;7295999;32;20203;-57
2023/08/27 16:02:52;;;;;;;1.02;0.55;;;17.10;99.90;;;;;;7289173;32;20911;-56
2023/08/27 16:06:54;;;;;;;5.20;0.75;;;17.00;99.90;;;;;;7294284;32;20521;-56
2023/08/27 16:10:56;;;;;;;8.15;0.85;;;17.00;99.90;;;;;;7300661;32;20173;-57
2023/08/27 16:14:58;;;;;;;2.08;0.80;;;16.90;99.90;;;;;;7297345;32;20272;-57
2023/08/27 16:19:00;;;;;;;2.15;0.60;;;16.90;99.90;;;;;;7293664;32;20521;-57
2023/08/27 16:23:02;;;;;;;2.30;1.27;;;17.00;99.90;;;;;;7298411;32;20104;-57
2023/08/27 16:27:04;;;;;;;2.90;0.70;;;17.00;99.90;;;;;;7296118;32;20199;-56
2023/08/27 16:31:05;;;;;;;1.62;0.62;;;17.20;99.90;;;;;;7295691;32;20255;-57
2023/08/27 16:35:08;;;;;;;3.62;0.70;;;17.30;99.90;;;;;;7295042;32;20796;-58
2023/08/27 16:39:09;;;;;;;4.78;0.68;;;17.20;99.90;;;;;;7298694;32;20092;-57
2023/08/27 16:43:11;;;;;;;2.40;0.62;;;17.10;99.90;;;;;;7294998;32;20167;-57
2023/08/27 16:47:13;;;;;;;1.42;0.60;;;17.10;99.90;;;;;;7298514;32;20338;-56
2023/08/27 16:51:15;;;;;;;3.95;1.08;;;17.10;99.90;;;;;;7292016;32;20495;-56
2023/08/27 16:55:17;;;;;;;2.65;1.27;;;17.10;99.90;;;;;;7296972;32;20107;-57
2023/08/27 16:59:19;;;;;;;3.60;1.08;;;17.10;99.90;;;;;;7290738;32;20198;-56
2023/08/27 17:03:21;;;;;;;2.28;0.82;;;17.00;99.90;;;;;;7293543;32;20710;-57
2023/08/27 17:07:22;;;;;;;2.87;1.52;;;16.90;99.90;;;;;;7299899;32;20438;-57
2023/08/27 17:11:24;;;;;;;1.98;0.90;;;16.90;99.90;;;;;;7294706;32;20497;-57
2023/08/27 17:15:26;;;;;;;3.10;1.20;;;17.00;99.90;;;;;;7296162;32;20176;-57
2023/08/27 17:19:28;;;;;;;2.35;1.65;;;17.10;99.90;;;;;;7295284;32;20606;-57
2023/08/27 17:23:29;;;;;;;1.37;0.80;;;17.20;99.90;;;;;;7287854;32;20540;-55
2023/08/27 17:27:31;;;;;;;1.98;1.10;;;17.00;99.90;;;;;;7291549;32;20179;-54
2023/08/27 17:31:33;;;;;;;1.85;0.65;;;17.00;99.90;;;;;;7294559;32;20130;-54
2023/08/27 17:35:35;;;;;;;4.40;0.68;;;16.90;99.90;;;;;;7294319;32;20318;-55
2023/08/27 17:39:36;;;;;;;2.70;0.80;;;17.00;99.90;;;;;;7295597;32;20099;-55
2023/08/27 17:43:38;;;;;;;3.42;1.00;;;16.90;99.90;;;;;;7296709;32;20206;-55
2023/08/27 17:47:45;;;;;;;2.72;1.35;;;16.80;99.90;;;;;;7294523;32;20227;-56
2023/08/27 17:51:47;;;;;;;3.40;1.05;;;16.70;99.90;;;;;;7295775;32;20179;-55
2023/08/27 17:55:50;;;;;;;1.67;0.90;;;16.60;99.90;;;;;;7297047;32;20107;-56
2023/08/27 17:59:54;;;;;;;1.65;1.00;;;16.60;99.90;;;;;;7293781;32;20647;-56
2023/08/27 18:03:56;;;;;;;2.17;1.00;;;16.60;99.90;;;;;;7288488;32;20153;-56
2023/08/27 18:07:58;;;;;;;4.25;0.80;;;16.50;99.90;;;;;;7289660;32;20191;-56
2023/08/27 18:12:00;;;;;;;0.95;0.85;;;16.40;99.90;;;;;;7293489;32;20130;-55
2023/08/27 18:16:02;;;;;;;1.33;1.00;;;16.40;99.90;;;;;;7296521;32;20130;-55
2023/08/27 18:20:05;;;;;;;2.40;1.00;;;16.30;99.90;;;;;;7297288;32;20097;-56
2023/08/27 18:24:07;;;;;;;3.25;1.10;;;16.20;99.90;;;;;;7295417;32;20488;-56
2023/08/27 18:28:09;;;;;;;1.77;1.12;;;16.20;99.90;;;;;;7299605;32;20198;-56
2023/08/27 18:32:11;;;;;;;3.92;1.05;;;16.20;99.90;;;;;;7298823;32;20183;-56
2023/08/27 18:36:13;;;;;;;2.58;1.23;;;16.10;99.90;;;;;;7297102;32;20205;-55
2023/08/27 18:40:15;;;;;;;2.30;1.00;;;16.00;99.90;;;;;;7297501;32;20177;-56
2023/08/27 18:44:16;;;;;;;1.70;1.10;;;15.90;99.90;;;;;;7296709;32;20158;-56
2023/08/27 18:48:18;;;;;;;2.28;1.00;;;15.90;99.90;;;;;;7295663;32;20191;-55
2023/08/27 18:52:20;;;;;;;2.20;1.12;;;15.80;99.90;;;;;;7294378;32;20799;-56
2023/08/27 18:56:22;;;;;;;5.20;1.25;;;15.70;99.90;;;;;;7299904;32;20429;-56
2023/08/27 19:00:23;;;;;;;2.67;1.55;;;15.70;99.90;;;;;;7299502;32;20210;-55
2023/08/27 19:04:26;;;;;;;2.03;1.30;;;15.50;99.90;;;;;;7297686;32;20772;-55
2023/08/27 19:08:29;;;;;;;2.67;1.33;;;15.40;99.90;;;;;;7301092;32;20230;-54
2023/08/27 19:12:30;;;;;;;1.50;1.25;;;15.40;99.90;;;;;;7293273;32;20462;-54
2023/08/27 19:16:32;;;;;;;1.50;1.10;;;15.40;99.90;;;;;;7298580;32;20248;-55
2023/08/27 19:20:34;;;;;;;2.30;1.02;;;15.20;99.90;;;;;;7295717;32;20100;-55
2023/08/27 19:24:36;;;;;;;2.53;0.95;;;14.90;99.90;;;;;;7286213;32;20096;-55
2023/08/27 19:28:37;;;;;;;2.22;1.00;;;14.80;99.90;;;;;;7292864;32;20409;-54
2023/08/27 19:32:39;;;;;;;3.40;0.90;;;14.60;99.90;;;;;;7297486;32;20286;-55
2023/08/27 19:36:44;;;;;;;1.90;1.30;;;14.40;99.90;;;;;;7296373;32;20104;-54
2023/08/27 19:40:56;;;;;;;1.52;1.02;;;14.30;99.90;;;;;;7294775;32;20143;-56
2023/08/27 19:44:58;;;;;;;1.27;1.17;;;14.30;99.90;;;;;;7299466;32;20100;-55
2023/08/27 19:48:59;;;;;;;1.60;1.42;;;14.30;99.90;;;;;;7296818;32;20108;-54
2023/08/27 19:53:01;;;;;;;2.83;1.27;;;14.20;99.90;;;;;;7298006;32;20307;-55
2023/08/27 19:57:03;;;;;;;7.15;1.25;;;14.00;99.90;;;;;;7298664;32;20466;-56
2023/08/27 20:01:05;;;;;;;1.55;1.15;;;13.80;99.90;;;;;;7299276;32;20108;-56
2023/08/27 20:05:07;;;;;;;2.78;1.20;;;13.70;99.90;;;;;;7293784;32;20168;-57
2023/08/27 20:09:10;;;;;;;3.45;1.50;;;13.60;99.90;;;;;;7295655;32;20250;-55
2023/08/27 20:13:12;;;;;;;2.12;1.10;;;13.50;99.90;;;;;;7297900;32;20112;-55
2023/08/27 20:17:13;;;;;;;2.70;1.10;;;13.40;99.90;;;;;;7296618;32;20107;-55
2023/08/27 20:21:15;;;;;;;1.60;1.10;;;13.30;99.90;;;;;;7294753;32;20115;-55
2023/08/27 20:25:18;;;;;;;4.32;1.05;;;13.30;99.90;;;;;;7294300;32;20206;-55
2023/08/27 20:29:20;;;;;;;2.28;1.50;;;13.30;99.90;;;;;;7285760;32;20187;-56
2023/08/27 20:33:22;;;;;;;6.53;1.58;;;13.40;99.90;;;;;;7296262;32;20222;-56
2023/08/27 20:37:25;;;;;;;4.15;1.17;;;13.40;99.90;;;;;;7294219;32;20526;-58
2023/08/27 20:41:27;;;;;;;3.62;1.33;;;13.30;99.90;;;;;;7294402;32;20217;-57
2023/08/27 20:45:28;;;;;;;5.07;2.92;;;13.20;99.90;;;;;;7294756;32;20214;-56
2023/08/27 20:49:30;;;;;;;2.60;1.60;;;13.00;99.90;;;;;;7294132;32;20466;-57
2023/08/27 20:53:34;;;;;;;2.22;1.42;;;13.00;99.90;;;;;;7295962;32;20333;-57
2023/08/27 20:57:36;;;;;;;3.53;2.20;;;12.90;99.90;;;;;;7302613;32;20182;-57
2023/08/27 21:01:38;;;;;;;2.08;1.50;;;12.90;99.90;;;;;;7295059;32;20198;-55
2023/08/27 21:05:41;;;;;;;2.05;1.20;;;12.70;99.90;;;;;;7293073;32;20255;-54